Time;durP1;ratioP1;P1;durP2;ratioP2;P2;SDS_P1;SDS_P2;PMS_P1;PMS_P2;Temp;Humidity;BMP_temperature;BMP_pressure;BME280_temperature;BME280_humidity;BME280_pressure;Samples;Min_cycle;Max_cycle;Signal;HPM_P1;HPM_P2
2022/09/22 00:04:59;;;;;;;8.50;3.78;;;21.40;54.40;;;;;;10358455;28;20058;-35
2022/09/22 00:10:01;;;;;;;5.00;3.42;;;21.40;55.00;;;;;;10356197;28;20589;-35
2022/09/22 00:15:05;;;;;;;4.72;3.40;;;21.40;54.30;;;;;;10358151;28;20049;-35
2022/09/22 00:20:08;;;;;;;6.32;3.30;;;21.40;54.40;;;;;;10356988;28;20100;-32
2022/09/22 00:25:10;;;;;;;5.22;3.50;;;21.30;54.40;;;;;;10355506;28;20129;-35
2022/09/22 00:30:13;;;;;;;;;;;21.30;54.40;;;;;;10355040;28;20648;-34
2022/09/22 00:35:15;;;;;;;6.38;2.38;;;21.20;54.40;;;;;;10355759;28;19921;-35
2022/09/22 00:40:17;;;;;;;4.22;2.28;;;21.30;54.40;;;;;;10354506;28;20049;-35
2022/09/22 00:45:20;;;;;;;7.13;3.05;;;21.20;55.00;;;;;;10356644;28;20417;-35
2022/09/22 00:50:24;;;;;;;4.05;2.47;;;21.20;54.40;;;;;;10356238;28;20104;-36
2022/09/22 00:55:33;;;;;;;5.55;2.80;;;21.20;54.40;;;;;;10356639;28;20128;-35
2022/09/22 01:00:36;;;;;;;5.72;2.92;;;21.20;54.40;;;;;;10353878;28;20080;-35
2022/09/22 01:05:39;;;;;;;4.70;2.58;;;21.20;54.40;;;;;;10345339;28;20359;-35
2022/09/22 01:10:42;;;;;;;5.68;2.58;;;21.10;54.40;;;;;;10356756;28;20052;-36
2022/09/22 01:15:51;;;;;;;;;;;21.10;54.40;;;;;;10357261;28;20072;-34
2022/09/22 01:21:14;;;;;;;4.22;2.35;;;21.10;54.40;;;;;;10357303;28;20034;-35
2022/09/22 01:26:46;;;;;;;4.93;2.33;;;21.00;54.30;;;;;;10355645;28;20515;-35
2022/09/22 01:31:55;;;;;;;6.03;2.05;;;21.00;54.40;;;;;;10356019;28;20080;-34
2022/09/22 01:37:03;;;;;;;3.88;2.50;;;21.00;54.40;;;;;;10355657;28;20053;-35
2022/09/22 01:42:10;;;;;;;3.92;2.40;;;21.00;54.40;;;;;;10355536;28;20053;-35
2022/09/22 01:47:17;;;;;;;4.07;2.00;;;21.00;54.40;;;;;;10355815;28;20784;-35
2022/09/22 01:52:23;;;;;;;2.97;1.98;;;20.90;54.40;;;;;;10355651;28;20175;-35
2022/09/22 01:57:38;;;;;;;4.28;2.20;;;20.90;54.30;;;;;;10355977;28;20124;-35
2022/09/22 02:02:47;;;;;;;3.55;2.22;;;20.90;54.40;;;;;;10353063;28;20141;-35
2022/09/22 02:07:52;;;;;;;4.50;2.10;;;20.90;54.40;;;;;;10351365;28;20050;-35
2022/09/22 02:12:54;;;;;;;3.90;2.20;;;20.80;54.40;;;;;;10354705;28;20080;-37
2022/09/22 02:17:58;;;;;;;;;;;20.80;54.40;;;;;;10361917;28;20163;-33
2022/09/22 02:23:00;;;;;;;4.47;2.58;;;20.80;54.30;;;;;;10362275;28;19925;-34
2022/09/22 02:28:02;;;;;;;4.30;2.40;;;20.80;54.40;;;;;;10363869;28;20077;-33
2022/09/22 02:33:06;;;;;;;;;;;20.80;54.40;;;;;;10362879;28;20077;-33
2022/09/22 02:38:11;;;;;;;4.18;2.05;;;20.80;54.30;;;;;;10359821;28;19921;-35
2022/09/22 02:43:18;;;;;;;3.17;2.15;;;20.70;54.30;;;;;;10361681;28;20101;-34
2022/09/22 02:48:24;;;;;;;5.03;2.05;;;20.70;55.00;;;;;;10360668;28;20054;-34
2022/09/22 02:53:26;;;;;;;3.70;2.13;;;20.70;54.30;;;;;;10361991;28;20073;-35
2022/09/22 02:58:28;;;;;;;;;;;20.70;54.40;;;;;;10361778;28;20450;-35
2022/09/22 03:03:31;;;;;;;2.70;1.80;;;20.70;54.40;;;;;;10360098;28;19925;-35
2022/09/22 03:08:33;;;;;;;3.45;1.77;;;20.60;54.40;;;;;;10360540;28;20130;-35
2022/09/22 03:13:35;;;;;;;2.67;1.98;;;20.60;54.40;;;;;;10359808;28;20057;-34
2022/09/22 03:18:38;;;;;;;1.83;1.45;;;20.60;54.50;;;;;;10358722;28;20137;-36
2022/09/22 03:23:40;;;;;;;2.60;1.52;;;20.60;54.40;;;;;;10360261;28;20092;-35
2022/09/22 03:28:42;;;;;;;2.13;1.45;;;20.60;54.40;;;;;;10360285;28;20178;-35
2022/09/22 03:33:46;;;;;;;3.38;1.70;;;20.60;54.50;;;;;;10359883;28;20525;-34
2022/09/22 03:38:47;;;;;;;1.92;1.50;;;20.50;54.50;;;;;;10360211;28;20140;-35
2022/09/22 03:43:49;;;;;;;2.20;1.38;;;20.50;54.40;;;;;;10358830;28;20450;-34
2022/09/22 03:48:53;;;;;;;3.20;1.48;;;20.50;54.50;;;;;;10359176;28;20484;-34
2022/09/22 03:53:55;;;;;;;2.13;1.10;;;20.50;54.50;;;;;;10358794;28;20570;-35
2022/09/22 03:58:57;;;;;;;2.70;0.98;;;20.50;54.60;;;;;;10360078;28;20546;-34
2022/09/22 04:04:00;;;;;;;1.83;1.13;;;20.50;54.60;;;;;;10357941;28;20077;-34
2022/09/22 04:09:03;;;;;;;3.33;1.50;;;20.40;54.60;;;;;;10357198;28;20407;-34
2022/09/22 04:14:05;;;;;;;1.45;1.10;;;20.50;54.60;;;;;;10357080;28;20136;-34
2022/09/22 04:19:08;;;;;;;1.77;1.30;;;20.40;54.70;;;;;;10358760;28;20057;-33
2022/09/22 04:24:10;;;;;;;1.73;1.10;;;20.40;54.70;;;;;;10356579;28;20423;-33
2022/09/22 04:29:12;;;;;;;2.83;1.35;;;20.40;54.60;;;;;;10355834;28;20042;-34
2022/09/22 04:34:15;;;;;;;2.17;1.05;;;20.40;54.60;;;;;;10358116;28;20089;-35
2022/09/22 04:39:17;;;;;;;1.80;1.10;;;20.30;54.70;;;;;;10353807;28;20050;-35
2022/09/22 04:44:19;;;;;;;1.50;1.15;;;20.40;54.70;;;;;;10355862;28;20042;-35
2022/09/22 04:49:22;;;;;;;2.15;1.60;;;20.30;54.90;;;;;;10352241;28;20129;-35
2022/09/22 04:54:24;;;;;;;2.70;1.42;;;20.20;54.60;;;;;;10354908;28;20045;-36
2022/09/22 04:59:25;;;;;;;2.80;1.33;;;19.90;55.00;;;;;;10353236;28;20133;-35
2022/09/22 05:04:29;;;;;;;3.33;1.65;;;20.00;55.40;;;;;;10353051;28;20054;-36
2022/09/22 05:09:30;;;;;;;1.65;1.05;;;20.20;55.40;;;;;;10353114;28;20077;-35
2022/09/22 05:14:34;;;;;;;1.75;1.20;;;20.10;55.80;;;;;;10352642;28;20116;-36
2022/09/22 05:19:37;;;;;;;3.47;1.30;;;20.20;55.50;;;;;;10354405;28;20046;-35
2022/09/22 05:24:41;;;;;;;2.55;1.33;;;20.20;55.70;;;;;;10356154;28;20120;-34
2022/09/22 05:29:43;;;;;;;1.38;1.08;;;20.20;55.90;;;;;;10353971;28;20054;-35
2022/09/22 05:34:46;;;;;;;1.60;1.02;;;20.20;55.70;;;;;;10354205;28;20470;-35
2022/09/22 05:39:48;;;;;;;5.90;3.17;;;20.20;55.90;;;;;;10353343;28;20149;-35
2022/09/22 05:44:49;;;;;;;7.70;3.72;;;20.20;55.70;;;;;;10352303;28;20478;-34
2022/09/22 05:49:55;;;;;;;8.10;4.55;;;20.20;55.70;;;;;;10352843;28;20050;-35
2022/09/22 05:54:57;;;;;;;11.80;4.63;;;20.10;55.90;;;;;;10355310;28;20042;-35
2022/09/22 05:59:59;;;;;;;9.95;5.55;;;20.20;55.90;;;;;;10354265;28;20072;-33
2022/09/22 06:05:02;;;;;;;9.88;5.30;;;20.20;55.90;;;;;;10346285;28;20042;-36
2022/09/22 06:10:04;;;;;;;5.38;3.33;;;20.20;55.90;;;;;;10350552;28;20154;-35
2022/09/22 06:15:07;;;;;;;4.65;2.10;;;20.20;55.90;;;;;;10353213;28;20145;-35
2022/09/22 06:20:10;;;;;;;3.05;1.70;;;20.20;55.90;;;;;;10352887;28;20155;-34
2022/09/22 06:25:12;;;;;;;4.22;2.10;;;20.20;55.70;;;;;;10351983;28;20135;-35
2022/09/22 06:30:14;;;;;;;3.35;1.83;;;20.30;56.50;;;;;;10352252;28;20046;-34
2022/09/22 06:35:18;;;;;;;7.85;3.67;;;20.20;55.60;;;;;;10353253;28;20038;-33
2022/09/22 06:40:19;;;;;;;7.18;3.67;;;20.30;55.30;;;;;;10350409;28;20527;-34
2022/09/22 06:45:22;;;;;;;8.95;3.38;;;20.30;55.50;;;;;;10351578;28;20531;-35
2022/09/22 06:50:25;;;;;;;;;;;20.40;55.30;;;;;;10351531;28;20053;-34
2022/09/22 06:55:28;;;;;;;5.45;2.83;;;20.40;55.30;;;;;;10353536;28;19935;-35
2022/09/22 07:00:32;;;;;;;6.18;3.45;;;20.40;55.20;;;;;;10352017;28;20046;-34
2022/09/22 07:05:36;;;;;;;9.50;4.00;;;20.40;55.10;;;;;;10360687;28;20180;-34
2022/09/22 07:10:40;;;;;;;8.93;4.32;;;20.40;55.10;;;;;;10358598;28;20637;-35
2022/09/22 07:15:43;;;;;;;8.85;3.40;;;20.40;55.00;;;;;;10359939;28;20473;-34
2022/09/22 07:20:46;;;;;;;7.45;2.50;;;20.40;55.20;;;;;;10360030;28;20108;-35
2022/09/22 07:25:55;;;;;;;7.75;3.58;;;20.50;55.00;;;;;;10348923;28;20442;-33
2022/09/22 07:31:02;;;;;;;5.55;2.65;;;20.40;54.90;;;;;;10349676;28;20554;-36
2022/09/22 07:36:08;;;;;;;5.70;2.78;;;20.50;54.90;;;;;;10354591;28;20120;-35
2022/09/22 07:41:12;;;;;;;9.05;2.97;;;20.50;54.80;;;;;;10355506;28;20057;-34
2022/09/22 07:46:14;;;;;;;7.70;2.78;;;20.70;54.50;;;;;;10350137;28;20038;-35
2022/09/22 07:51:20;;;;;;;5.30;3.40;;;20.60;54.50;;;;;;10355780;28;20058;-35
2022/09/22 07:56:22;;;;;;;5.68;3.20;;;20.70;54.50;;;;;;10357982;28;20041;-34
2022/09/22 08:01:25;;;;;;;8.65;2.92;;;20.70;54.40;;;;;;10353834;28;20414;-35
2022/09/22 08:06:29;;;;;;;5.60;3.28;;;20.60;54.50;;;;;;10354214;28;20475;-35
2022/09/22 08:11:31;;;;;;;8.63;3.75;;;20.70;54.40;;;;;;10352271;28;20616;-36
2022/09/22 08:16:36;;;;;;;7.53;2.65;;;20.70;54.90;;;;;;10353617;28;20136;-35
2022/09/22 08:21:40;;;;;;;5.45;2.83;;;20.60;54.60;;;;;;10353983;28;20057;-36
2022/09/22 08:26:43;;;;;;;7.80;2.60;;;20.70;54.50;;;;;;10352604;28;20141;-36
2022/09/22 08:31:46;;;;;;;5.22;2.53;;;20.80;54.80;;;;;;10356228;28;20077;-35
2022/09/22 08:36:49;;;;;;;6.65;2.58;;;20.80;54.70;;;;;;10356114;28;20061;-35
2022/09/22 08:42:10;;;;;;;7.18;3.13;;;20.90;54.70;;;;;;10354006;28;20097;-35
2022/09/22 08:51:50;;;;;;;4.82;2.80;;;20.90;55.20;;;;;;10353880;28;20157;-32
2022/09/22 08:52:45;;;;;;;6.03;2.33;;;20.70;54.80;;;;;;10353674;28;20056;-35
2022/09/22 08:58:00;;;;;;;6.05;2.70;;;20.90;54.60;;;;;;10352276;28;20057;-35
2022/09/22 09:03:22;;;;;;;6.10;3.00;;;20.80;54.90;;;;;;10351398;28;20051;-34
2022/09/22 09:08:51;;;;;;;6.80;3.08;;;20.80;53.10;;;;;;10353195;28;20073;-35
2022/09/22 09:14:12;;;;;;;8.57;2.50;;;20.80;54.70;;;;;;10353406;28;20124;-33
2022/09/22 09:19:29;;;;;;;4.93;2.15;;;21.00;54.40;;;;;;10354307;28;20077;-36
2022/09/22 09:24:35;;;;;;;4.63;2.65;;;21.10;54.40;;;;;;10353555;28;20041;-35
2022/09/22 09:29:43;;;;;;;3.83;2.10;;;20.40;55.60;;;;;;10352836;28;20038;-34
2022/09/22 09:34:47;;;;;;;6.22;2.13;;;21.10;54.30;;;;;;10352358;28;20454;-33
2022/09/22 09:39:52;;;;;;;7.63;2.50;;;21.10;54.20;;;;;;10354159;28;20060;-36
2022/09/22 09:45:01;;;;;;;10.25;1.88;;;20.40;55.40;;;;;;10344949;28;20156;-35
2022/09/22 09:50:03;;;;;;;8.13;4.20;;;20.90;54.20;;;;;;10349702;28;20038;-36
2022/09/22 09:55:19;;;;;;;7.03;2.28;;;20.80;53.80;;;;;;10352003;28;20120;-33
2022/09/22 10:00:31;;;;;;;3.75;2.03;;;21.10;53.80;;;;;;10350440;28;20045;-37
2022/09/22 10:05:36;;;;;;;2.80;2.20;;;21.00;54.10;;;;;;10350511;28;20474;-34
2022/09/22 10:10:40;;;;;;;4.82;2.08;;;21.00;54.00;;;;;;10351015;28;20554;-34
2022/09/22 10:15:43;;;;;;;7.63;3.35;;;20.90;53.80;;;;;;10348668;28;20147;-35
2022/09/22 10:20:45;;;;;;;3.25;1.75;;;20.80;53.20;;;;;;10350949;28;20064;-34
2022/09/22 10:25:49;;;;;;;;;;;20.80;54.20;;;;;;10350264;28;20589;-34
2022/09/22 10:30:59;;;;;;;10.85;4.53;;;21.10;52.20;;;;;;10348900;28;20509;-34
2022/09/22 10:36:05;;;;;;;15.20;3.80;;;20.90;53.90;;;;;;10349253;28;20050;-35
2022/09/22 10:41:12;;;;;;;13.27;3.45;;;21.10;53.20;;;;;;10355412;28;20068;-35
2022/09/22 10:46:30;;;;;;;7.95;2.67;;;21.00;53.40;;;;;;10355295;28;20608;-35
2022/09/22 10:51:53;;;;;;;9.05;3.55;;;21.10;50.30;;;;;;10355881;28;20159;-34
2022/09/22 10:57:07;;;;;;;14.32;2.15;;;20.90;53.60;;;;;;10356936;28;20046;-35
2022/09/22 11:02:36;;;;;;;5.13;2.08;;;20.60;52.50;;;;;;10356844;28;20188;-37
2022/09/22 11:13:28;;;;;;;4.95;2.10;;;21.10;51.00;;;;;;10355768;28;20053;-33
2022/09/22 11:18:48;;;;;;;2.83;1.65;;;21.00;53.20;;;;;;10357447;28;20070;-35
2022/09/22 11:24:20;;;;;;;3.45;1.70;;;21.30;52.20;;;;;;10357024;28;20062;-36
2022/09/22 11:29:55;;;;;;;5.60;3.05;;;21.50;51.70;;;;;;10354226;28;20050;-33
2022/09/22 11:35:22;;;;;;;5.10;1.60;;;20.50;49.80;;;;;;10356464;28;20050;-33
2022/09/22 11:40:40;;;;;;;4.15;1.63;;;21.20;51.80;;;;;;10355026;28;20046;-36
2022/09/22 11:45:51;;;;;;;3.65;2.10;;;21.10;52.80;;;;;;10356088;28;20038;-34
2022/09/22 11:51:10;;;;;;;5.05;1.63;;;21.30;51.00;;;;;;10353720;28;20112;-35
2022/09/22 11:56:35;;;;;;;2.53;1.73;;;21.60;51.20;;;;;;10354907;28;20124;-34
2022/09/22 12:01:40;;;;;;;6.78;1.52;;;21.40;50.00;;;;;;10354698;28;20116;-35
2022/09/22 12:06:48;;;;;;;2.05;1.00;;;21.50;52.00;;;;;;10353549;28;20045;-34
2022/09/22 12:11:51;;;;;;;5.72;1.27;;;21.70;51.40;;;;;;10354054;28;20096;-34
2022/09/22 12:17:01;;;;;;;2.92;1.67;;;20.80;51.50;;;;;;10352235;28;20547;-34
2022/09/22 12:22:12;;;;;;;6.13;1.65;;;21.60;51.30;;;;;;10354286;28;20132;-35
2022/09/22 12:27:21;;;;;;;3.35;1.27;;;21.30;51.60;;;;;;10354260;28;20077;-34
2022/09/22 12:32:28;;;;;;;6.63;2.00;;;21.90;50.40;;;;;;10354053;28;20065;-33
2022/09/22 12:37:33;;;;;;;3.80;0.90;;;21.40;50.40;;;;;;10353935;28;20133;-35
2022/09/22 12:42:37;;;;;;;3.80;0.98;;;21.80;51.20;;;;;;10353219;28;20049;-35
2022/09/22 12:47:42;;;;;;;3.72;1.40;;;22.10;50.50;;;;;;10354179;28;20046;-33
2022/09/22 12:53:03;;;;;;;3.72;1.50;;;22.40;49.70;;;;;;10354399;28;20049;-33
2022/09/22 12:58:41;;;;;;;4.85;1.83;;;22.10;49.10;;;;;;10354322;28;20081;-35
2022/09/22 13:03:51;;;;;;;6.80;2.95;;;21.90;51.00;;;;;;10351013;28;20060;-35
2022/09/22 13:09:18;;;;;;;1.88;1.20;;;22.40;48.70;;;;;;10353445;28;20041;-36
2022/09/22 13:14:57;;;;;;;2.45;1.35;;;22.40;49.90;;;;;;10350287;28;20068;-35
2022/09/22 13:20:01;;;;;;;0.90;0.57;;;22.70;49.50;;;;;;10353704;28;20941;-35
2022/09/22 13:25:14;;;;;;;5.53;2.35;;;22.80;49.50;;;;;;10353689;28;20096;-35
2022/09/22 13:30:16;;;;;;;9.15;3.00;;;22.90;49.70;;;;;;10352473;28;20179;-36
2022/09/22 13:35:27;;;;;;;5.82;1.45;;;23.10;49.50;;;;;;10351252;28;20734;-35
2022/09/22 13:40:33;;;;;;;4.60;1.60;;;23.10;46.40;;;;;;10352029;28;20052;-35
2022/09/22 13:45:38;;;;;;;4.20;1.92;;;23.30;48.20;;;;;;10351788;28;20046;-35
2022/09/22 13:50:48;;;;;;;4.22;1.70;;;23.20;46.60;;;;;;10352435;28;20510;-34
2022/09/22 13:55:52;;;;;;;2.60;1.20;;;23.40;44.90;;;;;;10352995;28;20049;-34
2022/09/22 14:00:57;;;;;;;7.47;1.50;;;23.60;47.50;;;;;;10351050;28;20053;-35
2022/09/22 14:06:01;;;;;;;5.80;1.20;;;23.80;46.90;;;;;;10352959;28;20077;-35
2022/09/22 14:11:04;;;;;;;3.55;1.20;;;23.60;48.10;;;;;;10351670;28;20105;-34
2022/09/22 14:16:13;;;;;;;2.55;1.05;;;23.90;44.80;;;;;;10359975;28;20140;-34
2022/09/22 14:21:17;;;;;;;3.75;0.80;;;24.00;46.40;;;;;;10360554;28;20135;-35
2022/09/22 14:26:33;;;;;;;3.00;0.98;;;24.10;46.90;;;;;;10359594;28;20049;-35
2022/09/22 14:31:35;;;;;;;5.00;1.52;;;24.10;46.80;;;;;;10360411;28;20045;-35
2022/09/22 14:36:42;;;;;;;3.78;1.27;;;24.30;43.20;;;;;;10360842;28;20138;-36
2022/09/22 14:41:51;;;;;;;6.72;1.60;;;24.50;43.40;;;;;;10357907;28;20058;-35
2022/09/22 14:46:55;;;;;;;5.38;2.45;;;24.90;45.30;;;;;;10359454;28;20053;-34
2022/09/22 14:52:00;;;;;;;7.20;1.80;;;25.40;41.60;;;;;;10358400;28;20125;-36
2022/09/22 14:57:07;;;;;;;5.57;1.60;;;25.00;44.60;;;;;;10357180;28;20061;-37
2022/09/22 15:07:36;;;;;;;2.35;1.38;;;24.80;46.50;;;;;;10357712;28;20045;-35
2022/09/22 15:12:39;;;;;;;3.17;1.08;;;24.70;46.20;;;;;;10357517;28;20069;-35
2022/09/22 15:23:03;;;;;;;5.05;1.63;;;25.00;45.90;;;;;;10357267;28;20054;-36
2022/09/22 15:28:10;;;;;;;2.58;1.15;;;25.20;43.90;;;;;;10353287;28;20487;-36
2022/09/22 15:33:13;;;;;;;1.65;0.98;;;25.00;45.90;;;;;;10357297;28;20514;-36
2022/09/22 15:38:22;;;;;;;3.38;1.30;;;24.70;46.40;;;;;;10356542;28;20046;-35
2022/09/22 15:43:29;;;;;;;4.57;1.17;;;24.70;47.00;;;;;;10355883;28;20125;-34
2022/09/22 15:48:33;;;;;;;3.80;1.33;;;24.70;46.70;;;;;;10353758;28;20129;-35
2022/09/22 15:53:37;;;;;;;2.10;1.20;;;24.80;46.50;;;;;;10356081;28;20563;-34
2022/09/22 15:58:41;;;;;;;4.47;1.08;;;24.60;46.90;;;;;;10355301;28;20116;-34
2022/09/22 16:03:44;;;;;;;4.32;1.20;;;24.70;47.10;;;;;;10353191;28;20042;-36
2022/09/22 16:08:50;;;;;;;4.05;1.58;;;24.70;47.40;;;;;;10353238;28;20105;-34
2022/09/22 16:13:52;;;;;;;6.75;1.52;;;24.70;47.00;;;;;;10351426;28;20053;-35
2022/09/22 16:18:53;;;;;;;;;;;24.60;47.20;;;;;;10351591;28;20495;-34
2022/09/22 16:23:58;;;;;;;2.97;1.20;;;24.60;47.30;;;;;;10349679;28;19929;-35
2022/09/22 16:29:00;;;;;;;3.45;1.40;;;24.60;47.40;;;;;;10351425;28;20073;-35
2022/09/22 16:34:04;;;;;;;3.78;2.10;;;24.50;47.50;;;;;;10351969;28;20164;-35
2022/09/22 16:39:09;;;;;;;4.20;1.33;;;24.50;47.60;;;;;;10350426;28;20626;-35
2022/09/22 16:44:10;;;;;;;5.40;1.45;;;24.50;47.60;;;;;;10354457;28;20542;-34
2022/09/22 16:49:15;;;;;;;2.78;1.40;;;24.50;47.70;;;;;;10349822;28;20473;-36
2022/09/22 16:54:18;;;;;;;4.13;1.25;;;24.50;47.80;;;;;;10353317;28;20049;-35
2022/09/22 16:59:22;;;;;;;3.97;1.33;;;24.50;47.90;;;;;;10351232;28;20062;-35
2022/09/22 17:04:23;;;;;;;3.85;1.23;;;24.40;48.00;;;;;;10352314;28;20141;-35
2022/09/22 17:09:27;;;;;;;;;;;24.40;48.10;;;;;;10351627;28;20417;-34
2022/09/22 17:14:31;;;;;;;2.83;0.90;;;24.30;48.20;;;;;;10351184;28;19929;-35
2022/09/22 17:19:33;;;;;;;3.53;1.17;;;24.40;48.30;;;;;;10352839;28;20065;-33
2022/09/22 17:24:36;;;;;;;4.25;1.75;;;24.30;48.30;;;;;;10352113;28;20402;-35
2022/09/22 17:29:39;;;;;;;4.95;1.20;;;24.30;48.40;;;;;;10351490;28;20057;-34
2022/09/22 17:34:41;;;;;;;5.13;1.08;;;24.30;48.50;;;;;;10349997;28;20160;-34
2022/09/22 17:39:44;;;;;;;4.50;1.38;;;24.20;48.60;;;;;;10350567;28;20121;-35
2022/09/22 17:44:46;;;;;;;5.80;1.50;;;24.20;48.70;;;;;;10352924;28;20077;-35
2022/09/22 17:55:14;;;;;;;3.92;1.30;;;24.10;48.80;;;;;;10352211;28;20050;-34
2022/09/22 18:00:19;;;;;;;2.92;1.30;;;24.10;49.00;;;;;;10353176;28;20124;-35
2022/09/22 18:05:25;;;;;;;6.72;1.20;;;24.00;49.10;;;;;;10352808;28;20750;-35
2022/09/22 18:10:32;;;;;;;3.20;1.10;;;24.00;49.30;;;;;;10349836;28;20046;-34
2022/09/22 18:15:35;;;;;;;5.30;1.20;;;23.90;49.50;;;;;;10350112;28;20140;-35
2022/09/22 18:20:37;;;;;;;3.55;2.00;;;24.00;49.60;;;;;;10347334;28;20057;-35
2022/09/22 18:25:40;;;;;;;;;;;24.00;49.70;;;;;;10347520;28;20784;-33
2022/09/22 18:30:42;;;;;;;5.30;1.65;;;23.90;49.80;;;;;;10350148;28;19921;-36
2022/09/22 18:35:44;;;;;;;;;;;23.80;49.80;;;;;;10352543;28;20854;-36
2022/09/22 18:40:50;;;;;;;4.40;1.55;;;23.80;50.00;;;;;;10352029;28;20402;-34
2022/09/22 18:45:52;;;;;;;5.45;1.63;;;23.80;50.00;;;;;;10350664;28;20714;-34
2022/09/22 18:50:53;;;;;;;;;;;23.80;50.10;;;;;;10351064;28;20124;-34
2022/09/22 18:56:09;;;;;;;4.10;1.40;;;23.80;50.20;;;;;;10349264;28;19943;-34
2022/09/22 19:01:12;;;;;;;2.80;1.50;;;23.70;50.20;;;;;;10346956;28;20070;-34
2022/09/22 19:06:15;;;;;;;2.97;1.48;;;23.70;50.30;;;;;;10356425;28;20088;-34
2022/09/22 19:11:18;;;;;;;7.72;1.60;;;23.70;50.30;;;;;;10357947;28;20065;-35
2022/09/22 19:16:21;;;;;;;4.35;1.52;;;23.70;50.40;;;;;;10358356;28;20108;-34
2022/09/22 19:21:24;;;;;;;5.38;2.10;;;23.60;50.40;;;;;;10353010;28;20053;-34
2022/09/22 19:26:27;;;;;;;4.57;1.77;;;23.60;50.60;;;;;;10354677;28;20046;-34
2022/09/22 19:31:29;;;;;;;5.90;1.52;;;23.60;50.70;;;;;;10356100;28;20166;-35
2022/09/22 19:36:31;;;;;;;3.63;1.52;;;23.50;50.70;;;;;;10352669;28;20046;-34
2022/09/22 19:41:36;;;;;;;2.88;1.38;;;23.50;50.70;;;;;;10355445;28;20077;-35
2022/09/22 19:46:38;;;;;;;3.65;1.90;;;23.50;50.80;;;;;;10354392;28;20041;-35
2022/09/22 19:51:41;;;;;;;4.78;1.73;;;23.40;50.70;;;;;;10355408;28;20145;-35
2022/09/22 19:56:44;;;;;;;10.18;1.90;;;23.40;50.80;;;;;;10355122;28;20057;-34
2022/09/22 20:01:46;;;;;;;6.40;1.90;;;23.40;50.80;;;;;;10354962;28;20133;-35
2022/09/22 20:06:48;;;;;;;4.60;2.25;;;23.40;50.80;;;;;;10354490;28;20499;-34
2022/09/22 20:11:51;;;;;;;3.85;1.55;;;23.30;50.80;;;;;;10349212;28;20173;-35
2022/09/22 20:16:55;;;;;;;3.58;2.05;;;23.30;50.90;;;;;;10353105;28;20104;-35
2022/09/22 20:22:21;;;;;;;6.55;2.30;;;23.30;51.00;;;;;;10356368;28;20141;-35
2022/09/22 20:27:27;;;;;;;2.67;1.80;;;23.30;51.00;;;;;;10356943;28;20136;-35
2022/09/22 20:32:31;;;;;;;8.60;2.30;;;23.20;51.10;;;;;;10356947;28;20042;-35
2022/09/22 20:37:33;;;;;;;5.55;2.15;;;23.20;51.10;;;;;;10355805;28;20108;-35
2022/09/22 20:42:36;;;;;;;;;;;23.20;51.20;;;;;;10356920;28;20438;-35
2022/09/22 20:47:38;;;;;;;5.43;2.63;;;23.10;51.20;;;;;;10355337;28;20531;-34
2022/09/22 20:52:41;;;;;;;7.47;2.20;;;23.10;51.30;;;;;;10357781;28;20049;-35
2022/09/22 20:57:45;;;;;;;6.25;2.45;;;23.10;51.40;;;;;;10355479;28;20165;-34
2022/09/22 21:02:47;;;;;;;8.13;2.15;;;23.00;51.40;;;;;;10355533;28;20046;-35
2022/09/22 21:10:33;;;;;;;7.28;2.35;;;23.00;51.40;;;;;;10353731;28;20475;-36
2022/09/22 21:13:13;;;;;;;6.63;2.28;;;23.00;51.50;;;;;;10354176;28;20048;-35
2022/09/22 21:18:16;;;;;;;7.22;2.25;;;23.00;51.50;;;;;;10352653;28;20058;-36
2022/09/22 21:23:18;;;;;;;6.88;2.65;;;23.00;51.50;;;;;;10353398;28;20568;-35
2022/09/22 21:28:21;;;;;;;;;;;22.90;51.60;;;;;;10356452;28;20052;-35
2022/09/22 21:33:23;;;;;;;6.18;2.67;;;22.90;51.80;;;;;;10352067;28;19925;-34
2022/09/22 21:38:25;;;;;;;7.57;2.58;;;22.80;51.80;;;;;;10352382;28;20080;-36
2022/09/22 21:43:29;;;;;;;6.93;2.30;;;22.80;51.80;;;;;;10349283;28;20046;-34
2022/09/22 21:48:35;;;;;;;4.97;1.83;;;22.80;51.90;;;;;;10341863;28;20049;-34
2022/09/22 21:53:38;;;;;;;6.65;2.08;;;22.70;51.90;;;;;;10351890;28;20632;-34
2022/09/22 21:58:43;;;;;;;3.80;2.08;;;22.70;52.00;;;;;;10350256;28;20145;-34
2022/09/22 22:03:46;;;;;;;3.83;2.10;;;22.70;52.00;;;;;;10349949;28;20072;-33
2022/09/22 22:08:51;;;;;;;4.10;1.85;;;22.70;52.10;;;;;;10352779;28;20050;-34
2022/09/22 22:13:55;;;;;;;3.80;1.83;;;22.60;52.20;;;;;;10347293;28;20057;-35
2022/09/22 22:18:57;;;;;;;6.40;2.15;;;22.60;52.20;;;;;;10350673;28;20179;-35
2022/09/22 22:24:26;;;;;;;;;;;22.60;52.20;;;;;;10351149;28;20569;-34
2022/09/22 22:29:30;;;;;;;6.15;2.05;;;22.60;52.20;;;;;;10348929;28;19926;-34
2022/09/22 22:34:33;;;;;;;3.60;1.95;;;22.50;52.30;;;;;;10353599;28;20046;-35
2022/09/22 22:39:35;;;;;;;5.22;2.03;;;22.50;52.30;;;;;;10357398;28;20084;-35
2022/09/22 22:44:38;;;;;;;2.35;1.55;;;22.50;52.30;;;;;;10356357;28;20550;-34
2022/09/22 22:49:40;;;;;;;2.92;2.00;;;22.40;52.30;;;;;;10353544;28;20062;-35
2022/09/22 22:54:41;;;;;;;4.47;2.10;;;22.40;52.30;;;;;;10356078;28;20046;-35
2022/09/22 22:59:44;;;;;;;2.63;1.58;;;22.40;52.40;;;;;;10358295;28;20137;-35
2022/09/22 23:04:47;;;;;;;4.13;2.00;;;22.40;52.50;;;;;;10361474;28;20153;-34
2022/09/22 23:10:04;;;;;;;;;;;22.30;52.40;;;;;;10358657;28;20053;-34
2022/09/22 23:15:09;;;;;;;2.03;1.55;;;22.30;52.50;;;;;;10360117;28;20605;-34
2022/09/22 23:20:11;;;;;;;2.63;1.63;;;22.30;52.50;;;;;;10358250;28;20076;-34
2022/09/22 23:25:13;;;;;;;2.83;1.60;;;22.30;52.50;;;;;;10358008;28;20092;-33
2022/09/22 23:30:17;;;;;;;2.15;1.58;;;22.20;52.50;;;;;;10360904;28;20053;-34
2022/09/22 23:35:19;;;;;;;6.07;1.70;;;22.20;52.60;;;;;;10357599;28;20405;-34
2022/09/22 23:40:20;;;;;;;2.83;1.60;;;22.20;52.60;;;;;;10360055;28;20056;-34
2022/09/22 23:45:24;;;;;;;3.10;1.73;;;22.20;52.70;;;;;;10359176;28;20192;-34
2022/09/22 23:50:25;;;;;;;9.07;1.77;;;22.20;52.70;;;;;;10357720;28;20050;-34
2022/09/22 23:55:28;;;;;;;2.28;1.52;;;22.10;52.70;;;;;;10358875;28;20050;-34
